| time (UTC) | temp C | wind direction | speed KPH | gust KPH | rain 1hr cm | rain 24hr cm | rain mn cm | humidity % | barometer mb |
| 20260510171044 | 24 | 108 | 9.7 | 9.7 | 0.30 | 0.71 | 0.71 | 89 | 347.8 |
| 20260510170539 | 24 | 65 | 9.7 | 12.9 | 3.78 | 0.71 | 0.71 | 89 | 348.0 |
| 20260510170036 | 24 | 17 | 9.7 | 16.1 | 3.17 | 0.56 | 0.56 | 88 | 348.0 |
| 20260510165532 | 25 | 23 | 9.7 | 22.5 | 0.43 | 0.08 | 0.08 | 87 | 347.9 |
| 20260510165029 | 25 | 50 | 12.9 | 24.1 | 0.13 | 0.03 | 0.03 | 87 | 347.9 |
| 20260510164526 | 25 | 50 | 8.0 | 20.9 | 0.00 | 0.00 | 0.00 | 87 | 347.9 |
| 20260510164023 | 25 | 56 | 19.3 | 22.5 | 0.00 | 0.00 | 0.00 | 86 | 347.8 |
| 20260510163518 | 26 | 71 | 22.5 | 25.7 | 0.00 | 0.00 | 0.00 | 86 | 347.8 |
| 20260510163014 | 26 | 78 | 20.9 | 24.1 | 0.00 | 0.00 | 0.00 | 86 | 347.9 |
| 20260510162510 | 26 | 74 | 20.9 | 29.0 | 0.00 | 0.00 | 0.00 | 85 | 347.7 |
| 20260510162007 | 26 | 72 | 29.0 | 30.6 | 0.00 | 0.00 | 0.00 | 83 | 347.7 |
| 20260510161502 | 26 | 70 | 25.7 | 30.6 | 0.00 | 0.00 | 0.00 | 79 | 347.7 |
| 20260510161000 | 29 | 67 | 22.5 | 24.1 | 0.00 | 0.00 | 0.00 | 72 | 347.7 |
| 20260510160457 | 29 | 30 | 4.8 | 6.4 | 0.00 | 0.00 | 0.00 | 72 | 347.7 |
| 20260510155954 | 28 | 47 | 8.0 | 9.7 | 0.00 | 0.00 | 0.00 | 74 | 347.6 |
| 20260510155452 | 29 | 288 | 3.2 | 6.4 | 0.00 | 0.00 | 0.00 | 74 | 347.7 |
| 20260510154949 | 28 | 51 | 3.2 | 4.8 | 0.00 | 0.00 | 0.00 | 75 | 347.7 |
| 20260510154444 | 28 | 22 | 3.2 | 6.4 | 0.00 | 0.00 | 0.00 | 77 | 348.0 |
| 20260510153943 | 28 | 64 | 1.6 | 6.4 | 0.00 | 0.00 | 0.00 | 77 | 347.7 |
| 20260510153440 | 28 | 314 | 3.2 | 9.7 | 0.00 | 0.00 | 0.00 | 78 | 347.7 |
| 20260510152937 | 28 | 343 | 4.8 | 6.4 | 0.00 | 0.00 | 0.00 | 78 | 347.7 |
| 20260510152435 | 28 | 346 | 4.8 | 6.4 | 0.00 | 0.00 | 0.00 | 79 | 347.9 |
| 20260510151930 | 27 | 61 | 1.6 | 6.4 | 0.00 | 0.00 | 0.00 | 80 | 347.7 |
| 20260510151428 | 27 | 250 | 4.8 | 8.0 | 0.00 | 0.00 | 0.00 | 80 | 347.9 |
| 20260510150924 | 27 | 267 | 6.4 | 6.4 | 0.00 | 0.00 | 0.00 | 81 | 347.9 |
| 20260510150420 | 27 | 309 | 1.6 | 8.0 | 0.00 | 0.00 | 0.00 | 82 | 347.9 |
| 20260510145916 | 27 | 57 | 3.2 | 6.4 | 0.00 | 0.00 | 0.00 | 84 | 347.9 |
| 20260510145413 | 27 | 352 | 1.6 | 3.2 | 0.00 | 0.00 | 0.00 | 84 | 347.9 |
| 20260510144910 | 27 | 335 | 3.2 | 8.0 | 0.00 | 0.00 | 0.00 | 85 | 347.9 |
| 20260510144407 | 27 | 300 | 8.0 | 9.7 | 0.00 | 0.00 | 0.00 | 85 | 347.7 |
| 20260510143907 | 27 | 326 | 4.8 | 11.3 | 0.00 | 0.00 | 0.00 | 86 | 347.8 |
| 20260510143403 | 26 | 303 | 6.4 | 8.0 | 0.00 | 0.00 | 0.00 | 87 | 347.9 |
| 20260510142900 | 26 | 279 | 4.8 | 8.0 | 0.00 | 0.00 | 0.00 | 87 | 347.9 |
| 20260510142356 | 27 | 294 | 4.8 | 4.8 | 0.00 | 0.00 | 0.00 | 88 | 348.1 |
| 20260510141853 | 26 | 306 | 1.6 | 6.4 | 0.00 | 0.00 | 0.00 | 89 | 348.0 |
| 20260510141351 | 26 | 331 | 3.2 | 8.0 | 0.00 | 0.00 | 0.00 | 89 | 348.0 |
| 20260510140848 | 26 | 0 | 3.2 | 6.4 | 0.00 | 0.00 | 0.00 | 91 | 348.0 |
| 20260510140344 | 26 | 291 | 4.8 | 6.4 | 0.00 | 0.00 | 0.00 | 91 | 348.0 |
| 20260510135843 | 26 | 318 | 3.2 | 11.3 | 0.00 | 0.00 | 0.00 | 91 | 348.0 |
| 20260510135339 | 25 | 299 | 3.2 | 4.8 | 0.00 | 0.00 | 0.00 | 93 | 348.0 |
| 20260510134837 | 25 | 275 | 1.6 | 8.0 | 0.00 | 0.00 | 0.00 | 93 | 348.0 |
| 20260510134333 | 25 | 314 | 1.6 | 8.0 | 0.00 | 0.00 | 0.00 | 93 | 348.1 |
| 20260510133829 | 25 | 302 | 3.2 | 6.4 | 0.00 | 0.00 | 0.00 | 94 | 348.2 |
| 20260510133325 | 25 | 349 | 0.0 | 8.0 | 0.00 | 0.00 | 0.00 | 94 | 348.1 |
| 20260510132821 | 25 | 350 | 3.2 | 9.7 | 0.00 | 0.00 | 0.00 | 95 | 348.0 |
| 20260510132319 | 25 | 315 | 3.2 | 6.4 | 0.00 | 0.00 | 0.00 | 95 | 348.1 |
| 20260510131816 | 24 | 285 | 4.8 | 4.8 | 0.00 | 0.00 | 0.00 | 95 | 348.2 |
| 20260510131314 | 24 | 10 | 3.2 | 4.8 | 0.00 | 0.00 | 0.00 | 96 | 348.0 |
| 20260510130810 | 24 | 320 | 0.0 | 4.8 | 0.00 | 0.00 | 0.00 | 96 | 348.0 |
| 20260510130307 | 24 | 238 | 4.8 | 6.4 | 0.00 | 0.00 | 0.00 | 96 | 348.1 |
| 20260510125803 | 24 | 43 | 1.6 | 4.8 | 0.00 | 0.00 | 0.00 | 96 | 348.0 |
| 20260510125259 | 23 | 258 | 3.2 | 6.4 | 0.00 | 0.00 | 0.00 | 96 | 348.1 |
| 20260510124756 | 23 | 293 | 3.2 | 4.8 | 0.00 | 0.00 | 0.00 | 96 | 348.1 |
| 20260510124254 | 23 | 301 | 4.8 | 6.4 | 0.00 | 0.00 | 0.00 | 96 | 348.1 |
| 20260510123749 | 23 | 301 | 4.8 | 6.4 | 0.00 | 0.00 | 0.00 | 96 | 348.1 |
| 20260510123245 | 23 | 333 | 1.6 | 6.4 | 0.00 | 0.00 | 0.00 | 96 | 348.2 |
| 20260510122742 | 23 | 265 | 3.2 | 6.4 | 0.00 | 0.00 | 0.00 | 96 | 347.9 |
| 20260510122238 | 23 | 265 | 3.2 | 6.4 | 0.00 | 0.00 | 0.00 | 96 | 348.1 |
| 20260510121734 | 23 | 286 | 4.8 | 6.4 | 0.00 | 0.00 | 0.00 | 96 | 348.1 |
| 20260510121232 | 23 | 306 | 0.0 | 6.4 | 0.00 | 0.00 | 0.00 | 96 | 347.9 |
| 20260510120729 | 23 | 264 | 3.2 | 4.8 | 0.00 | 0.00 | 0.00 | 96 | 348.1 |
| 20260510120226 | 23 | 300 | 3.2 | 3.2 | 0.00 | 0.00 | 0.00 | 96 | 348.1 |
| 20260510115721 | 23 | 319 | 1.6 | 3.2 | 0.00 | 0.00 | 0.00 | 96 | 348.1 |
| 20260510115220 | 23 | 263 | 1.6 | 6.4 | 0.00 | 0.00 | 0.00 | 96 | 348.1 |
| 20260510114714 | 23 | 118 | 1.6 | 3.2 | 0.00 | 0.00 | 0.00 | 96 | 348.1 |
| 20260510114212 | 23 | 71 | 0.0 | 3.2 | 0.00 | 0.00 | 0.00 | 96 | 348.2 |
| 20260510113707 | 23 | 74 | 1.6 | 3.2 | 0.00 | 0.00 | 0.00 | 96 | 348.3 |
| 20260510113204 | 22 | 84 | 3.2 | 3.2 | 0.00 | 0.00 | 0.00 | 96 | 348.3 |
| 20260510112700 | 22 | 55 | 1.6 | 4.8 | 0.00 | 0.00 | 0.00 | 96 | 348.2 |
| 20260510112158 | 22 | 95 | 3.2 | 4.8 | 0.00 | 0.00 | 0.00 | 96 | 348.3 |
| 20260510111653 | 22 | 57 | 1.6 | 3.2 | 0.00 | 0.00 | 0.00 | 96 | 348.3 |
| 20260510111151 | 22 | 86 | 3.2 | 3.2 | 0.00 | 0.00 | 0.00 | 96 | 348.3 |
| 20260510110645 | 22 | 129 | 0.0 | 3.2 | 0.00 | 0.00 | 0.00 | 96 | 348.1 |
| 20260510110143 | 22 | 100 | 1.6 | 4.8 | 0.00 | 0.00 | 0.00 | 96 | 348.1 |
| 20260510105638 | 22 | 53 | 3.2 | 4.8 | 0.00 | 0.00 | 0.00 | 96 | 348.1 |
| 20260510105138 | 22 | 54 | 1.6 | 3.2 | 0.00 | 0.00 | 0.00 | 96 | 348.1 |
| 20260510104635 | 22 | 75 | 0.0 | 3.2 | 0.00 | 0.00 | 0.00 | 96 | 348.1 |
| 20260510104132 | 22 | 89 | 0.0 | 1.6 | 0.00 | 0.00 | 0.00 | 96 | 348.2 |
| 20260510103628 | 22 | 119 | 1.6 | 1.6 | 0.00 | 0.00 | 0.00 | 96 | 348.2 |
| 20260510103124 | 22 | 97 | 1.6 | 3.2 | 0.00 | 0.00 | 0.00 | 96 | 348.2 |
| 20260510102620 | 22 | 94 | 1.6 | 3.2 | 0.00 | 0.00 | 0.00 | 96 | 348.3 |
| 20260510102116 | 22 | 111 | 3.2 | 3.2 | 0.00 | 0.00 | 0.00 | 96 | 348.2 |
| 20260510101614 | 22 | 100 | 1.6 | 3.2 | 0.00 | 0.00 | 0.00 | 96 | 348.2 |
| 20260510101112 | 22 | 57 | 1.6 | 3.2 | 0.00 | 0.00 | 0.00 | 96 | 348.2 |
| 20260510100608 | 22 | 284 | 0.0 | 3.2 | 0.00 | 0.00 | 0.00 | 96 | 348.2 |
| 20260510100106 | 22 | 174 | 0.0 | 3.2 | 0.00 | 0.00 | 0.00 | 96 | 348.2 |
| 20260510095601 | 22 | 28 | 0.0 | 3.2 | 0.00 | 0.00 | 0.00 | 96 | 348.2 |
| 20260510095102 | 22 | 28 | 0.0 | 1.6 | 0.00 | 0.00 | 0.00 | 96 | 348.3 |
| 20260510094601 | 22 | 94 | 1.6 | 3.2 | 0.00 | 0.00 | 0.00 | 96 | 348.4 |
| 20260510094056 | 22 | 44 | 0.0 | 1.6 | 0.00 | 0.00 | 0.00 | 95 | 348.2 |
| 20260510093553 | 23 | 60 | 0.0 | 1.6 | 0.00 | 0.00 | 0.00 | 95 | 348.2 |
| 20260510093050 | 23 | 66 | 0.0 | 3.2 | 0.00 | 0.00 | 0.00 | 95 | 348.2 |
| 20260510092547 | 23 | 89 | 1.6 | 3.2 | 0.00 | 0.00 | 0.00 | 95 | 348.2 |
| 20260510092046 | 23 | 48 | 0.0 | 3.2 | 0.00 | 0.00 | 0.00 | 95 | 348.2 |
| 20260510091543 | 23 | 79 | 1.6 | 3.2 | 0.00 | 0.00 | 0.00 | 95 | 348.1 |
| 20260510091039 | 23 | 82 | 3.2 | 3.2 | 0.00 | 0.00 | 0.00 | 95 | 348.2 |
| 20260510090536 | 23 | 82 | 1.6 | 4.8 | 0.00 | 0.00 | 0.00 | 95 | 348.1 |
| 20260510090032 | 23 | 96 | 3.2 | 4.8 | 0.00 | 0.00 | 0.00 | 95 | 348.2 |
| 20260510085532 | 23 | 111 | 0.0 | 3.2 | 0.00 | 0.00 | 0.00 | 95 | 348.1 |
| 20260510085029 | 23 | 95 | 3.2 | 3.2 | 0.00 | 0.00 | 0.00 | 95 | 348.0 |
| 20260510084526 | 23 | 56 | 3.2 | 4.8 | 0.00 | 0.00 | 0.00 | 95 | 348.1 |
| 20260510084022 | 23 | 106 | 1.6 | 3.2 | 0.00 | 0.00 | 0.00 | 95 | 348.1 |
| 20260510083519 | 23 | 122 | 3.2 | 4.8 | 0.00 | 0.00 | 0.00 | 95 | 348.1 |
| 20260510083015 | 23 | 152 | 1.6 | 6.4 | 0.00 | 0.00 | 0.00 | 95 | 348.3 |
| 20260510082512 | 23 | 82 | 3.2 | 6.4 | 0.00 | 0.00 | 0.00 | 95 | 348.2 |
| 20260510082012 | 23 | 127 | 3.2 | 6.4 | 0.00 | 0.00 | 0.00 | 95 | 348.4 |
| 20260510081508 | 23 | 134 | 3.2 | 6.4 | 0.00 | 0.00 | 0.00 | 95 | 348.2 |
| 20260510081003 | 23 | 139 | 4.8 | 9.7 | 0.00 | 0.00 | 0.00 | 95 | 348.2 |
| 20260510080502 | 23 | 120 | 6.4 | 8.0 | 0.00 | 0.00 | 0.00 | 95 | 348.3 |
| 20260510075959 | 23 | 84 | 3.2 | 8.0 | 0.00 | 0.00 | 0.00 | 95 | 348.4 |
| 20260510075457 | 23 | 110 | 3.2 | 6.4 | 0.00 | 0.00 | 0.00 | 95 | 348.2 |
| 20260510074954 | 23 | 126 | 0.0 | 8.0 | 0.00 | 0.00 | 0.00 | 95 | 348.1 |
| 20260510074451 | 23 | 94 | 4.8 | 4.8 | 0.00 | 0.00 | 0.00 | 95 | 348.3 |
| 20260510073947 | 23 | 115 | 3.2 | 4.8 | 0.00 | 0.00 | 0.00 | 95 | 348.3 |
| 20260510073442 | 23 | 97 | 4.8 | 4.8 | 0.00 | 0.00 | 0.00 | 95 | 348.1 |
| 20260510072939 | 23 | 96 | 4.8 | 6.4 | 0.00 | 0.00 | 0.00 | 95 | 348.2 |
| 20260510072437 | 23 | 76 | 3.2 | 4.8 | 0.00 | 0.00 | 0.00 | 95 | 348.2 |
| 20260510071932 | 23 | 106 | 1.6 | 6.4 | 0.00 | 0.00 | 0.00 | 95 | 348.2 |
| 20260510071429 | 23 | 96 | 3.2 | 4.8 | 0.00 | 0.00 | 0.00 | 95 | 348.2 |
| 20260510070927 | 23 | 97 | 3.2 | 4.8 | 0.00 | 0.00 | 0.00 | 94 | 348.2 |
| 20260510070424 | 23 | 84 | 3.2 | 4.8 | 0.00 | 0.00 | 0.00 | 95 | 348.0 |
| 20260510065919 | 23 | 97 | 3.2 | 4.8 | 0.00 | 0.00 | 0.00 | 95 | 348.1 |
| 20260510065416 | 23 | 114 | 4.8 | 6.4 | 0.00 | 0.00 | 0.00 | 94 | 348.3 |
| 20260510064912 | 23 | 84 | 3.2 | 4.8 | 0.00 | 0.00 | 0.00 | 94 | 348.1 |
| 20260510064411 | 23 | 118 | 4.8 | 6.4 | 0.00 | 0.00 | 0.00 | 94 | 348.1 |
| 20260510063907 | 23 | 95 | 4.8 | 6.4 | 0.00 | 0.00 | 0.00 | 94 | 348.2 |
| 20260510063403 | 23 | 87 | 1.6 | 3.2 | 0.00 | 0.00 | 0.00 | 94 | 348.2 |
| 20260510062901 | 23 | 82 | 3.2 | 6.4 | 0.00 | 0.00 | 0.00 | 94 | 348.2 |
| 20260510062355 | 23 | 88 | 3.2 | 4.8 | 0.00 | 0.00 | 0.00 | 94 | 348.1 |
| 20260510061851 | 23 | 84 | 3.2 | 4.8 | 0.00 | 0.00 | 0.00 | 94 | 348.3 |
| 20260510061348 | 23 | 116 | 3.2 | 6.4 | 0.00 | 0.00 | 0.00 | 94 | 348.2 |
| 20260510060844 | 23 | 69 | 1.6 | 3.2 | 0.00 | 0.00 | 0.00 | 94 | 348.2 |
| 20260510060341 | 23 | 102 | 3.2 | 4.8 | 0.00 | 0.00 | 0.00 | 94 | 348.2 |
| 20260510055838 | 23 | 135 | 0.0 | 3.2 | 0.00 | 0.00 | 0.00 | 94 | 348.2 |
| 20260510055337 | 23 | 95 | 4.8 | 6.4 | 0.00 | 0.00 | 0.00 | 94 | 348.1 |
| 20260510054836 | 23 | 101 | 3.2 | 3.2 | 0.00 | 0.00 | 0.00 | 94 | 348.1 |
| 20260510054332 | 23 | 249 | 1.6 | 3.2 | 0.00 | 0.00 | 0.00 | 94 | 348.0 |
| 20260510053827 | 23 | 94 | 3.2 | 3.2 | 0.00 | 0.00 | 0.00 | 94 | 348.2 |
| 20260510053323 | 23 | 101 | 1.6 | 3.2 | 0.00 | 0.00 | 0.00 | 94 | 348.1 |
| 20260510052819 | 23 | 103 | 1.6 | 3.2 | 0.00 | 0.00 | 0.00 | 94 | 348.2 |
| 20260510052315 | 23 | 81 | 3.2 | 4.8 | 0.00 | 0.00 | 0.00 | 94 | 348.2 |
| 20260510051811 | 23 | 66 | 0.0 | 3.2 | 0.00 | 0.00 | 0.00 | 94 | 348.2 |
| 20260510051308 | 23 | 104 | 0.0 | 3.2 | 0.00 | 0.00 | 0.00 | 94 | 348.2 |
| 20260510050806 | 23 | 62 | 3.2 | 3.2 | 0.00 | 0.00 | 0.00 | 93 | 348.0 |
| 20260510050302 | 23 | 224 | 1.6 | 3.2 | 0.00 | 0.00 | 0.00 | 93 | 348.1 |
| 20260510045759 | 23 | 300 | 3.2 | 3.2 | 0.00 | 0.00 | 0.00 | 93 | 348.2 |
| 20260510045255 | 23 | 106 | 3.2 | 3.2 | 0.00 | 0.00 | 0.00 | 93 | 348.1 |
| 20260510044753 | 23 | 323 | 0.0 | 3.2 | 0.00 | 0.00 | 0.00 | 93 | 348.3 |
| 20260510044250 | 23 | 333 | 1.6 | 3.2 | 0.00 | 0.00 | 0.00 | 93 | 348.2 |
| 20260510043746 | 23 | 114 | 6.4 | 6.4 | 0.00 | 0.00 | 0.00 | 93 | 348.2 |
| 20260510043242 | 23 | 210 | 1.6 | 3.2 | 0.00 | 0.00 | 0.00 | 93 | 348.2 |
| 20260510042740 | 23 | 92 | 3.2 | 4.8 | 0.00 | 0.00 | 0.00 | 93 | 348.1 |
| 20260510042235 | 23 | 74 | 3.2 | 4.8 | 0.00 | 0.00 | 0.00 | 92 | 348.1 |
| 20260510041732 | 23 | 84 | 3.2 | 3.2 | 0.00 | 0.00 | 0.00 | 92 | 348.1 |
| 20260510041230 | 23 | 89 | 3.2 | 3.2 | 0.00 | 0.00 | 0.00 | 92 | 348.2 |
| 20260510040727 | 23 | 103 | 1.6 | 3.2 | 0.00 | 0.00 | 0.00 | 92 | 348.2 |
| 20260510040224 | 23 | 109 | 1.6 | 3.2 | 0.00 | 0.00 | 0.00 | 92 | 348.3 |
| 20260510035719 | 23 | 98 | 1.6 | 3.2 | 0.00 | 0.23 | 0.23 | 92 | 348.0 |
| 20260510035215 | 23 | 108 | 1.6 | 3.2 | 0.00 | 0.23 | 0.23 | 91 | 348.1 |
| 20260510034711 | 23 | 80 | 3.2 | 3.2 | 0.00 | 0.23 | 0.23 | 91 | 348.1 |
| 20260510034209 | 23 | 89 | 0.0 | 3.2 | 0.00 | 0.23 | 0.23 | 91 | 348.2 |
| 20260510033705 | 23 | 102 | 3.2 | 3.2 | 0.00 | 0.23 | 0.23 | 91 | 348.3 |
| 20260510033203 | 23 | 102 | 1.6 | 3.2 | 0.00 | 0.23 | 0.23 | 91 | 348.2 |
| 20260510032659 | 23 | 92 | 3.2 | 4.8 | 0.00 | 0.23 | 0.23 | 91 | 348.1 |
| 20260510032154 | 23 | 86 | 3.2 | 6.4 | 0.00 | 0.23 | 0.23 | 91 | 348.1 |
| 20260510031649 | 24 | 92 | 4.8 | 9.7 | 0.00 | 0.23 | 0.23 | 91 | 348.2 |
| 20260510031147 | 24 | 95 | 1.6 | 11.3 | 0.00 | 0.23 | 0.23 | 91 | 348.1 |
| 20260510030646 | 24 | 137 | 9.7 | 11.3 | 0.00 | 0.23 | 0.23 | 91 | 348.1 |
| 20260510030144 | 24 | 129 | 11.3 | 14.5 | 0.00 | 0.23 | 0.23 | 91 | 348.1 |
| 20260510025641 | 24 | 141 | 11.3 | 16.1 | 0.00 | 0.23 | 0.23 | 91 | 348.2 |
| 20260510025138 | 24 | 127 | 8.0 | 11.3 | 0.00 | 0.23 | 0.23 | 91 | 348.1 |
| 20260510024635 | 23 | 137 | 11.3 | 11.3 | 0.00 | 0.23 | 0.23 | 91 | 348.1 |
| 20260510024132 | 24 | 131 | 12.9 | 14.5 | 0.00 | 0.23 | 0.23 | 92 | 348.0 |
| 20260510023627 | 23 | 133 | 11.3 | 14.5 | 0.00 | 0.23 | 0.23 | 92 | 348.2 |
| 20260510023125 | 23 | 131 | 14.5 | 17.7 | 0.00 | 0.23 | 0.23 | 91 | 348.0 |
| 20260510022625 | 23 | 118 | 9.7 | 14.5 | 0.00 | 0.23 | 0.23 | 92 | 348.0 |
| 20260510022120 | 23 | 108 | 4.8 | 4.8 | 0.00 | 0.23 | 0.23 | 92 | 348.1 |
| 20260510021616 | 23 | 120 | 8.0 | 12.9 | 0.00 | 0.23 | 0.23 | 92 | 348.2 |
| 20260510021114 | 23 | 118 | 9.7 | 11.3 | 0.00 | 0.23 | 0.23 | 92 | 348.1 |
| 20260510020613 | 23 | 113 | 9.7 | 12.9 | 0.00 | 0.23 | 0.23 | 92 | 348.1 |
| 20260510020109 | 23 | 125 | 11.3 | 14.5 | 0.00 | 0.23 | 0.23 | 92 | 348.1 |
| 20260510015605 | 23 | 114 | 8.0 | 11.3 | 0.00 | 0.23 | 0.23 | 92 | 348.2 |
| 20260510015102 | 23 | 107 | 14.5 | 16.1 | 0.00 | 0.23 | 0.23 | 92 | 348.1 |
| 20260510014558 | 23 | 117 | 9.7 | 11.3 | 0.00 | 0.23 | 0.23 | 92 | 348.0 |
| 20260510014056 | 23 | 115 | 9.7 | 12.9 | 0.00 | 0.23 | 0.23 | 92 | 348.1 |
| 20260510013556 | 23 | 101 | 11.3 | 14.5 | 0.00 | 0.23 | 0.23 | 92 | 348.0 |
| 20260510013052 | 23 | 96 | 9.7 | 9.7 | 0.00 | 0.23 | 0.23 | 92 | 348.2 |
| 20260510012551 | 23 | 106 | 9.7 | 11.3 | 0.00 | 0.23 | 0.23 | 92 | 348.1 |
| 20260510012048 | 23 | 93 | 6.4 | 6.4 | 0.00 | 0.23 | 0.23 | 92 | 348.0 |
| 20260510011547 | 23 | 108 | 4.8 | 6.4 | 0.00 | 0.23 | 0.23 | 92 | 348.1 |
| 20260510011043 | 23 | 116 | 6.4 | 6.4 | 0.00 | 0.23 | 0.23 | 92 | 348.0 |
| 20260510010540 | 23 | 101 | 4.8 | 4.8 | 0.00 | 0.23 | 0.23 | 92 | 347.9 |
| 20260510010037 | 23 | 120 | 6.4 | 8.0 | 0.00 | 0.23 | 0.23 | 92 | 348.1 |
| 20260510005533 | 23 | 99 | 4.8 | 4.8 | 0.00 | 0.23 | 0.23 | 91 | 348.3 |
| 20260510005031 | 23 | 107 | 6.4 | 6.4 | 0.00 | 0.23 | 0.23 | 91 | 348.2 |
| 20260510004528 | 23 | 106 | 3.2 | 6.4 | 0.00 | 0.23 | 0.23 | 91 | 348.0 |
| 20260510004026 | 23 | 9 | 1.6 | 8.0 | 0.00 | 0.23 | 0.23 | 91 | 348.0 |
| 20260510003523 | 23 | 75 | 4.8 | 6.4 | 0.00 | 0.23 | 0.23 | 91 | 348.1 |
| 20260510003018 | 23 | 64 | 4.8 | 9.7 | 0.00 | 0.23 | 0.23 | 91 | 348.1 |
| 20260510002514 | 23 | 64 | 6.4 | 9.7 | 0.00 | 0.23 | 0.23 | 91 | 348.1 |
| 20260510002011 | 23 | 66 | 4.8 | 8.0 | 0.00 | 0.23 | 0.23 | 91 | 348.2 |
| 20260510001508 | 23 | 102 | 3.2 | 9.7 | 0.00 | 0.23 | 0.23 | 91 | 348.0 |
| 20260510001006 | 23 | 68 | 6.4 | 8.0 | 0.00 | 0.23 | 0.23 | 91 | 348.0 |
| 20260510000501 | 23 | 72 | 6.4 | 8.0 | 0.00 | 0.23 | 0.23 | 91 | 348.2 |
| 20260509235958 | 24 | 63 | 6.4 | 9.7 | 0.00 | 0.23 | 0.23 | 91 | 348.1 |
| 20260509235455 | 24 | 88 | 3.2 | 8.0 | 0.00 | 0.23 | 0.23 | 91 | 348.1 |
| 20260509234951 | 24 | 68 | 6.4 | 6.4 | 0.00 | 0.23 | 0.23 | 91 | 348.1 |
| 20260509234448 | 24 | 95 | 4.8 | 8.0 | 0.00 | 0.23 | 0.23 | 91 | 348.0 |
| 20260509233946 | 24 | 71 | 4.8 | 6.4 | 0.00 | 0.23 | 0.23 | 91 | 348.1 |
| 20260509233443 | 24 | 54 | 8.0 | 9.7 | 0.00 | 0.23 | 0.23 | 91 | 348.0 |
| 20260509232939 | 24 | 69 | 4.8 | 6.4 | 0.00 | 0.23 | 0.23 | 91 | 348.1 |
| 20260509232437 | 24 | 68 | 6.4 | 12.9 | 0.00 | 0.23 | 0.23 | 91 | 348.1 |
| 20260509231932 | 24 | 71 | 6.4 | 9.7 | 0.00 | 0.23 | 0.23 | 91 | 348.2 |
| 20260509231430 | 23 | 57 | 8.0 | 12.9 | 0.00 | 0.23 | 0.23 | 90 | 348.2 |
| 20260509230928 | 23 | 63 | 6.4 | 8.0 | 0.00 | 0.23 | 0.23 | 91 | 348.1 |
| 20260509230424 | 23 | 43 | 4.8 | 12.9 | 0.00 | 0.23 | 0.23 | 90 | 348.0 |
| 20260509225920 | 23 | 59 | 4.8 | 9.7 | 0.00 | 0.23 | 0.23 | 90 | 348.0 |
| 20260509225417 | 23 | 31 | 11.3 | 12.9 | 0.00 | 0.23 | 0.23 | 90 | 348.1 |
| 20260509224913 | 24 | 82 | 4.8 | 11.3 | 0.00 | 0.23 | 0.23 | 90 | 347.9 |
| 20260509224414 | 23 | 51 | 8.0 | 9.7 | 0.00 | 0.23 | 0.23 | 90 | 348.0 |
| 20260509223911 | 23 | 73 | 6.4 | 9.7 | 0.00 | 0.23 | 0.23 | 90 | 348.1 |
| 20260509223408 | 24 | 65 | 4.8 | 12.9 | 0.00 | 0.23 | 0.23 | 91 | 348.1 |
| 20260509222905 | 24 | 73 | 6.4 | 9.7 | 0.00 | 0.23 | 0.23 | 91 | 348.0 |
| 20260509222400 | 23 | 50 | 8.0 | 9.7 | 0.00 | 0.23 | 0.23 | 90 | 348.1 |
| 20260509221855 | 23 | 91 | 3.2 | 9.7 | 0.00 | 0.23 | 0.23 | 90 | 348.0 |
| 20260509221353 | 23 | 58 | 9.7 | 14.5 | 0.00 | 0.23 | 0.23 | 90 | 347.9 |
| 20260509220849 | 23 | 78 | 3.2 | 11.3 | 0.00 | 0.23 | 0.23 | 90 | 348.0 |
| 20260509220345 | 23 | 66 | 11.3 | 14.5 | 0.00 | 0.23 | 0.23 | 90 | 348.0 |
| 20260509215840 | 23 | 66 | 9.7 | 12.9 | 0.00 | 0.23 | 0.23 | 90 | 348.1 |
| 20260509215337 | 23 | 58 | 9.7 | 9.7 | 0.00 | 0.23 | 0.23 | 91 | 348.1 |
| 20260509214834 | 23 | 78 | 4.8 | 9.7 | 0.00 | 0.23 | 0.23 | 91 | 348.0 |
| 20260509214332 | 23 | 58 | 8.0 | 11.3 | 0.00 | 0.23 | 0.23 | 91 | 348.1 |
| 20260509213829 | 23 | 73 | 8.0 | 11.3 | 0.00 | 0.23 | 0.23 | 91 | 348.1 |
| 20260509213324 | 23 | 56 | 8.0 | 12.9 | 0.00 | 0.23 | 0.23 | 91 | 348.0 |
| 20260509212822 | 23 | 77 | 6.4 | 14.5 | 0.00 | 0.23 | 0.23 | 91 | 348.2 |
| 20260509212320 | 23 | 58 | 11.3 | 12.9 | 0.00 | 0.23 | 0.23 | 91 | 347.9 |
| 20260509211815 | 23 | 68 | 8.0 | 12.9 | 0.00 | 0.23 | 0.23 | 91 | 348.0 |
| 20260509211311 | 23 | 71 | 3.2 | 9.7 | 0.00 | 0.23 | 0.23 | 90 | 347.9 |
| 20260509210808 | 23 | 78 | 4.8 | 14.5 | 0.00 | 0.23 | 0.23 | 91 | 347.9 |
| 20260509210306 | 23 | 60 | 4.8 | 4.8 | 0.00 | 0.23 | 0.23 | 90 | 348.2 |
| 20260509205804 | 23 | 88 | 3.2 | 9.7 | 0.05 | 0.23 | 0.23 | 90 | 347.9 |
| 20260509205300 | 24 | 56 | 1.6 | 11.3 | 0.05 | 0.23 | 0.23 | 90 | 348.2 |
| 20260509204756 | 24 | 52 | 3.2 | 14.5 | 0.00 | 0.23 | 0.23 | 90 | 348.1 |
| 20260509204252 | 25 | 58 | 6.4 | 9.7 | 0.00 | 0.23 | 0.23 | 90 | 348.0 |
| 20260509203748 | 25 | 49 | 4.8 | 14.5 | 0.00 | 0.23 | 0.23 | 90 | 347.9 |
| 20260509203246 | 25 | 71 | 11.3 | 14.5 | 0.30 | 0.23 | 0.23 | 90 | 348.1 |
| 20260509202742 | 25 | 59 | 11.3 | 16.1 | 0.30 | 0.23 | 0.23 | 90 | 347.9 |
| 20260509202239 | 25 | 77 | 16.1 | 17.7 | 0.00 | 0.18 | 0.18 | 90 | 348.0 |
| 20260509201738 | 25 | 58 | 9.7 | 14.5 | 0.05 | 0.18 | 0.18 | 89 | 347.9 |
| 20260509201235 | 25 | 53 | 6.4 | 8.0 | 0.05 | 0.18 | 0.18 | 89 | 347.9 |
| 20260509200732 | 25 | 95 | 6.4 | 6.4 | 0.05 | 0.15 | 0.15 | 89 | 348.0 |
| 20260509200227 | 25 | 94 | 1.6 | 6.4 | 0.18 | 0.15 | 0.15 | 89 | 348.0 |
| 20260509195723 | 25 | 73 | 4.8 | 9.7 | 0.36 | 0.15 | 0.15 | 89 | 347.9 |
| 20260509195219 | 25 | 56 | 8.0 | 9.7 | 0.61 | 0.13 | 0.13 | 89 | 347.9 |
| 20260509194719 | 26 | 71 | 9.7 | 12.9 | 0.43 | 0.08 | 0.08 | 88 | 347.8 |
| 20260509194215 | 26 | 81 | 8.0 | 11.3 | 0.13 | 0.03 | 0.03 | 88 | 348.0 |
| 20260509193712 | 26 | 87 | 8.0 | 14.5 | 0.00 | 0.00 | 0.00 | 88 | 347.9 |
| 20260509193212 | 26 | 96 | 14.5 | 14.5 | 0.00 | 0.00 | 0.00 | 87 | 348.0 |
| 20260509192709 | 26 | 86 | 9.7 | 16.1 | 0.00 | 0.00 | 0.00 | 87 | 348.0 |
| 20260509192204 | 26 | 88 | 12.9 | 14.5 | 0.00 | 0.00 | 0.00 | 87 | 347.9 |
| 20260509191659 | 26 | 78 | 11.3 | 16.1 | 0.00 | 0.00 | 0.00 | 87 | 347.9 |
| 20260509191156 | 26 | 73 | 17.7 | 17.7 | 0.00 | 0.00 | 0.00 | 86 | 347.9 |
| 20260509190652 | 26 | 72 | 16.1 | 19.3 | 0.00 | 0.00 | 0.00 | 86 | 347.9 |
| 20260509190149 | 26 | 76 | 16.1 | 17.7 | 0.00 | 0.00 | 0.00 | 85 | 347.9 |
| 20260509185647 | 27 | 91 | 14.5 | 16.1 | 0.00 | 0.00 | 0.00 | 85 | 347.9 |
| 20260509185148 | 27 | 83 | 14.5 | 17.7 | 0.00 | 0.00 | 0.00 | 84 | 347.6 |
| 20260509184646 | 27 | 77 | 14.5 | 17.7 | 0.00 | 0.00 | 0.00 | 84 | 347.6 |
| 20260509184142 | 27 | 79 | 9.7 | 14.5 | 0.00 | 0.00 | 0.00 | 84 | 347.8 |
| 20260509183639 | 27 | 70 | 12.9 | 17.7 | 0.00 | 0.00 | 0.00 | 83 | 347.7 |
| 20260509183134 | 27 | 74 | 11.3 | 14.5 | 0.00 | 0.00 | 0.00 | 83 | 347.7 |
| 20260509182630 | 27 | 76 | 12.9 | 16.1 | 0.00 | 0.00 | 0.00 | 83 | 347.8 |
| 20260509182127 | 27 | 87 | 12.9 | 16.1 | 0.00 | 0.00 | 0.00 | 84 | 347.9 |
| 20260509181625 | 27 | 82 | 11.3 | 16.1 | 0.00 | 0.00 | 0.00 | 84 | 347.8 |
| 20260509181123 | 27 | 85 | 11.3 | 12.9 | 0.00 | 0.00 | 0.00 | 83 | 347.8 |
| 20260509180619 | 27 | 103 | 8.0 | 11.3 | 0.00 | 0.00 | 0.00 | 82 | 347.9 |
| 20260509180116 | 27 | 88 | 9.7 | 12.9 | 0.00 | 0.00 | 0.00 | 83 | 347.9 |
| 20260509175611 | 27 | 103 | 6.4 | 9.7 | 0.00 | 0.00 | 0.00 | 83 | 347.7 |
| 20260509175109 | 27 | 104 | 8.0 | 9.7 | 0.00 | 0.00 | 0.00 | 83 | 347.7 |
| 20260509174605 | 27 | 50 | 6.4 | 8.0 | 0.00 | 0.00 | 0.00 | 84 | 347.7 |
| 20260509174100 | 27 | 104 | 9.7 | 9.7 | 0.00 | 0.00 | 0.00 | 83 | 347.9 |
| 20260509173555 | 27 | 108 | 6.4 | 6.4 | 0.00 | 0.00 | 0.00 | 83 | 347.7 |
| 20260509173052 | 27 | 95 | 9.7 | 11.3 | 0.00 | 0.00 | 0.00 | 83 | 347.8 |
| 20260509172549 | 27 | 84 | 9.7 | 11.3 | 0.00 | 0.00 | 0.00 | 84 | 347.8 |
| 20260509172044 | 26 | 88 | 9.7 | 11.3 | 0.00 | 0.00 | 0.00 | 83 | 348.0 |
| 20260509171540 | 27 | 104 | 11.3 | 12.9 | 0.00 | 0.00 | 0.00 | 82 | 347.9 |